sensor_id;sensor_type;location;lat;lon;timestamp;P1;durP1;ratioP1;P2;durP2;ratioP2
7539;SDS011;3811;49.006;12.076;2024-03-23T00:53:43;8.63;;;7.20;;
7539;SDS011;3811;49.006;12.076;2024-03-23T00:56:09;12.43;;;8.33;;
7539;SDS011;3811;49.006;12.076;2024-03-23T00:58:36;10.70;;;7.60;;
7539;SDS011;3811;49.006;12.076;2024-03-23T01:01:02;7.87;;;7.07;;
7539;SDS011;3811;49.006;12.076;2024-03-23T01:03:31;11.00;;;7.63;;
7539;SDS011;3811;49.006;12.076;2024-03-23T01:05:58;12.63;;;7.80;;
7539;SDS011;3811;49.006;12.076;2024-03-23T01:08:26;9.43;;;8.10;;
7539;SDS011;3811;49.006;12.076;2024-03-23T01:10:55;9.07;;;8.17;;
7539;SDS011;3811;49.006;12.076;2024-03-23T01:13:22;10.40;;;7.70;;
7539;SDS011;3811;49.006;12.076;2024-03-23T01:15:49;10.73;;;7.47;;
7539;SDS011;3811;49.006;12.076;2024-03-23T01:18:16;9.93;;;7.87;;
7539;SDS011;3811;49.006;12.076;2024-03-23T01:20:44;9.67;;;8.37;;
7539;SDS011;3811;49.006;12.076;2024-03-23T01:23:12;10.57;;;7.57;;
7539;SDS011;3811;49.006;12.076;2024-03-23T01:25:38;10.70;;;7.77;;
7539;SDS011;3811;49.006;12.076;2024-03-23T01:28:06;9.33;;;7.50;;
7539;SDS011;3811;49.006;12.076;2024-03-23T01:30:32;10.47;;;7.63;;
7539;SDS011;3811;49.006;12.076;2024-03-23T01:32:59;8.93;;;6.80;;
7539;SDS011;3811;49.006;12.076;2024-03-23T01:35:26;12.17;;;8.43;;
7539;SDS011;3811;49.006;12.076;2024-03-23T01:37:55;8.57;;;7.13;;
7539;SDS011;3811;49.006;12.076;2024-03-23T01:40:21;9.97;;;8.17;;
7539;SDS011;3811;49.006;12.076;2024-03-23T01:42:55;7.27;;;6.20;;
7539;SDS011;3811;49.006;12.076;2024-03-23T01:45:22;9.10;;;6.50;;
7539;SDS011;3811;49.006;12.076;2024-03-23T01:47:50;10.93;;;7.90;;
7539;SDS011;3811;49.006;12.076;2024-03-23T01:50:16;9.70;;;7.57;;
7539;SDS011;3811;49.006;12.076;2024-03-23T01:52:44;14.53;;;7.17;;
7539;SDS011;3811;49.006;12.076;2024-03-23T01:55:12;10.10;;;7.53;;
7539;SDS011;3811;49.006;12.076;2024-03-23T01:57:39;10.13;;;8.43;;
7539;SDS011;3811;49.006;12.076;2024-03-23T02:00:06;13.53;;;7.30;;
7539;SDS011;3811;49.006;12.076;2024-03-23T02:02:43;8.60;;;7.70;;
7539;SDS011;3811;49.006;12.076;2024-03-23T02:05:10;9.43;;;7.47;;
7539;SDS011;3811;49.006;12.076;2024-03-23T02:07:37;11.13;;;8.57;;
7539;SDS011;3811;49.006;12.076;2024-03-23T02:10:04;10.10;;;8.23;;
7539;SDS011;3811;49.006;12.076;2024-03-23T02:12:33;8.63;;;7.57;;
7539;SDS011;3811;49.006;12.076;2024-03-23T02:15:00;9.63;;;7.30;;
7539;SDS011;3811;49.006;12.076;2024-03-23T02:17:28;11.67;;;9.57;;
7539;SDS011;3811;49.006;12.076;2024-03-23T02:19:55;11.67;;;8.13;;
7539;SDS011;3811;49.006;12.076;2024-03-23T02:22:22;9.07;;;8.17;;
7539;SDS011;3811;49.006;12.076;2024-03-23T02:24:50;11.67;;;9.33;;
7539;SDS011;3811;49.006;12.076;2024-03-23T02:27:17;10.90;;;8.80;;
7539;SDS011;3811;49.006;12.076;2024-03-23T02:29:43;10.40;;;9.30;;
7539;SDS011;3811;49.006;12.076;2024-03-23T02:32:11;11.10;;;8.10;;
7539;SDS011;3811;49.006;12.076;2024-03-23T02:34:37;13.47;;;7.73;;
7539;SDS011;3811;49.006;12.076;2024-03-23T02:37:09;9.87;;;8.33;;
7539;SDS011;3811;49.006;12.076;2024-03-23T02:39:36;13.27;;;10.20;;
7539;SDS011;3811;49.006;12.076;2024-03-23T02:42:05;11.97;;;9.73;;
7539;SDS011;3811;49.006;12.076;2024-03-23T02:44:31;8.57;;;7.67;;
7539;SDS011;3811;49.006;12.076;2024-03-23T02:46:58;12.80;;;8.63;;
7539;SDS011;3811;49.006;12.076;2024-03-23T02:49:41;14.20;;;7.90;;
7539;SDS011;3811;49.006;12.076;2024-03-23T02:52:25;14.77;;;9.53;;
7539;SDS011;3811;49.006;12.076;2024-03-23T02:55:07;12.20;;;9.47;;
7539;SDS011;3811;49.006;12.076;2024-03-23T02:57:35;13.40;;;8.67;;
7539;SDS011;3811;49.006;12.076;2024-03-23T03:00:04;11.37;;;9.30;;
7539;SDS011;3811;49.006;12.076;2024-03-23T03:02:32;11.47;;;7.70;;
7539;SDS011;3811;49.006;12.076;2024-03-23T03:04:59;15.27;;;8.70;;
7539;SDS011;3811;49.006;12.076;2024-03-23T03:07:26;10.77;;;8.53;;
7539;SDS011;3811;49.006;12.076;2024-03-23T03:09:56;12.37;;;7.97;;
7539;SDS011;3811;49.006;12.076;2024-03-23T03:12:22;12.07;;;9.47;;
7539;SDS011;3811;49.006;12.076;2024-03-23T03:14:51;14.47;;;9.10;;
7539;SDS011;3811;49.006;12.076;2024-03-23T03:17:17;14.37;;;10.00;;
7539;SDS011;3811;49.006;12.076;2024-03-23T03:19:45;10.60;;;7.13;;
7539;SDS011;3811;49.006;12.076;2024-03-23T03:22:12;10.77;;;8.10;;
7539;SDS011;3811;49.006;12.076;2024-03-23T03:24:53;12.60;;;9.23;;
7539;SDS011;3811;49.006;12.076;2024-03-23T03:27:52;12.40;;;8.17;;
7539;SDS011;3811;49.006;12.076;2024-03-23T03:30:22;10.93;;;8.40;;
7539;SDS011;3811;49.006;12.076;2024-03-23T03:32:49;14.63;;;8.43;;
7539;SDS011;3811;49.006;12.076;2024-03-23T03:35:16;16.27;;;10.10;;
7539;SDS011;3811;49.006;12.076;2024-03-23T03:37:42;9.93;;;8.67;;
7539;SDS011;3811;49.006;12.076;2024-03-23T03:40:10;12.00;;;8.40;;
7539;SDS011;3811;49.006;12.076;2024-03-23T03:42:36;16.33;;;9.57;;
7539;SDS011;3811;49.006;12.076;2024-03-23T03:45:04;11.97;;;9.53;;
7539;SDS011;3811;49.006;12.076;2024-03-23T03:47:32;11.77;;;9.27;;
7539;SDS011;3811;49.006;12.076;2024-03-23T03:49:59;11.73;;;9.37;;
7539;SDS011;3811;49.006;12.076;2024-03-23T03:52:26;13.67;;;9.63;;
7539;SDS011;3811;49.006;12.076;2024-03-23T03:54:55;14.67;;;8.93;;
7539;SDS011;3811;49.006;12.076;2024-03-23T03:57:22;12.43;;;8.63;;
7539;SDS011;3811;49.006;12.076;2024-03-23T03:59:49;9.27;;;7.20;;
7539;SDS011;3811;49.006;12.076;2024-03-23T04:02:15;10.33;;;8.27;;
7539;SDS011;3811;49.006;12.076;2024-03-23T04:04:44;10.87;;;9.67;;
7539;SDS011;3811;49.006;12.076;2024-03-23T04:07:10;12.70;;;8.90;;
7539;SDS011;3811;49.006;12.076;2024-03-23T04:09:37;13.23;;;8.70;;
7539;SDS011;3811;49.006;12.076;2024-03-23T04:12:04;9.83;;;7.70;;
7539;SDS011;3811;49.006;12.076;2024-03-23T04:14:31;13.40;;;8.27;;
7539;SDS011;3811;49.006;12.076;2024-03-23T04:16:58;10.57;;;9.00;;
7539;SDS011;3811;49.006;12.076;2024-03-23T04:19:26;11.60;;;9.03;;
7539;SDS011;3811;49.006;12.076;2024-03-23T04:21:53;9.77;;;8.20;;
7539;SDS011;3811;49.006;12.076;2024-03-23T04:24:21;8.20;;;7.37;;
7539;SDS011;3811;49.006;12.076;2024-03-23T04:26:47;10.20;;;9.10;;
7539;SDS011;3811;49.006;12.076;2024-03-23T04:29:15;14.63;;;10.03;;
7539;SDS011;3811;49.006;12.076;2024-03-23T04:31:41;10.07;;;8.57;;
7539;SDS011;3811;49.006;12.076;2024-03-23T04:34:08;9.17;;;8.27;;
7539;SDS011;3811;49.006;12.076;2024-03-23T04:36:34;10.30;;;7.87;;
7539;SDS011;3811;49.006;12.076;2024-03-23T04:39:03;11.57;;;9.07;;
7539;SDS011;3811;49.006;12.076;2024-03-23T04:41:33;10.67;;;8.90;;
7539;SDS011;3811;49.006;12.076;2024-03-23T04:44:01;8.67;;;7.77;;
7539;SDS011;3811;49.006;12.076;2024-03-23T04:46:28;9.33;;;8.13;;
7539;SDS011;3811;49.006;12.076;2024-03-23T04:48:56;9.00;;;7.97;;
7539;SDS011;3811;49.006;12.076;2024-03-23T04:51:23;9.67;;;7.53;;
7539;SDS011;3811;49.006;12.076;2024-03-23T04:53:51;12.10;;;8.73;;
7539;SDS011;3811;49.006;12.076;2024-03-23T04:56:20;8.00;;;7.13;;
7539;SDS011;3811;49.006;12.076;2024-03-23T04:58:50;10.70;;;7.60;;
7539;SDS011;3811;49.006;12.076;2024-03-23T05:01:16;7.20;;;6.50;;
7539;SDS011;3811;49.006;12.076;2024-03-23T05:03:44;8.43;;;7.57;;
7539;SDS011;3811;49.006;12.076;2024-03-23T05:06:10;10.47;;;8.00;;
7539;SDS011;3811;49.006;12.076;2024-03-23T05:08:37;8.80;;;6.70;;
7539;SDS011;3811;49.006;12.076;2024-03-23T05:11:05;7.63;;;6.83;;
7539;SDS011;3811;49.006;12.076;2024-03-23T05:13:33;7.07;;;6.43;;
7539;SDS011;3811;49.006;12.076;2024-03-23T05:15:59;7.57;;;6.77;;
7539;SDS011;3811;49.006;12.076;2024-03-23T05:18:27;7.30;;;6.43;;
7539;SDS011;3811;49.006;12.076;2024-03-23T05:20:55;10.23;;;8.07;;
7539;SDS011;3811;49.006;12.076;2024-03-23T05:23:23;9.97;;;7.93;;
7539;SDS011;3811;49.006;12.076;2024-03-23T05:25:49;9.43;;;8.10;;
7539;SDS011;3811;49.006;12.076;2024-03-23T05:28:16;7.43;;;6.73;;
7539;SDS011;3811;49.006;12.076;2024-03-23T05:30:44;8.50;;;7.17;;
7539;SDS011;3811;49.006;12.076;2024-03-23T05:33:17;8.43;;;7.37;;
7539;SDS011;3811;49.006;12.076;2024-03-23T05:35:43;8.13;;;7.27;;
7539;SDS011;3811;49.006;12.076;2024-03-23T05:38:10;8.63;;;7.10;;
7539;SDS011;3811;49.006;12.076;2024-03-23T05:40:37;8.63;;;6.57;;
7539;SDS011;3811;49.006;12.076;2024-03-23T05:43:05;7.07;;;6.37;;
7539;SDS011;3811;49.006;12.076;2024-03-23T05:45:31;6.63;;;5.87;;
7539;SDS011;3811;49.006;12.076;2024-03-23T05:48:00;7.33;;;6.43;;
7539;SDS011;3811;49.006;12.076;2024-03-23T05:50:27;6.93;;;6.10;;
7539;SDS011;3811;49.006;12.076;2024-03-23T05:52:53;9.83;;;6.60;;
7539;SDS011;3811;49.006;12.076;2024-03-23T05:55:20;10.00;;;7.10;;
7539;SDS011;3811;49.006;12.076;2024-03-23T05:57:46;9.27;;;6.43;;
7539;SDS011;3811;49.006;12.076;2024-03-23T06:00:14;9.20;;;6.43;;
7539;SDS011;3811;49.006;12.076;2024-03-23T06:02:41;9.40;;;7.13;;
7539;SDS011;3811;49.006;12.076;2024-03-23T06:05:11;8.23;;;6.73;;
7539;SDS011;3811;49.006;12.076;2024-03-23T06:07:37;7.47;;;6.73;;
7539;SDS011;3811;49.006;12.076;2024-03-23T06:10:05;7.63;;;6.37;;
7539;SDS011;3811;49.006;12.076;2024-03-23T06:12:31;6.97;;;5.20;;
7539;SDS011;3811;49.006;12.076;2024-03-23T06:14:58;7.43;;;6.37;;
7539;SDS011;3811;49.006;12.076;2024-03-23T06:17:24;9.13;;;6.37;;
7539;SDS011;3811;49.006;12.076;2024-03-23T06:19:52;8.40;;;6.53;;
7539;SDS011;3811;49.006;12.076;2024-03-23T06:22:19;8.77;;;6.27;;
7539;SDS011;3811;49.006;12.076;2024-03-23T06:24:47;6.33;;;5.73;;
7539;SDS011;3811;49.006;12.076;2024-03-23T06:27:13;5.73;;;5.13;;
7539;SDS011;3811;49.006;12.076;2024-03-23T06:29:40;7.43;;;5.33;;
7539;SDS011;3811;49.006;12.076;2024-03-23T06:32:06;5.30;;;4.80;;
7539;SDS011;3811;49.006;12.076;2024-03-23T06:34:34;6.77;;;5.37;;
7539;SDS011;3811;49.006;12.076;2024-03-23T06:37:00;5.47;;;4.70;;
7539;SDS011;3811;49.006;12.076;2024-03-23T06:39:29;6.97;;;5.70;;
7539;SDS011;3811;49.006;12.076;2024-03-23T06:41:56;5.00;;;4.50;;
7539;SDS011;3811;49.006;12.076;2024-03-23T06:44:23;5.93;;;5.40;;
7539;SDS011;3811;49.006;12.076;2024-03-23T06:46:49;6.27;;;4.93;;
7539;SDS011;3811;49.006;12.076;2024-03-23T06:49:16;4.67;;;4.27;;
7539;SDS011;3811;49.006;12.076;2024-03-23T06:51:43;5.13;;;4.63;;
7539;SDS011;3811;49.006;12.076;2024-03-23T06:54:11;5.27;;;4.27;;
7539;SDS011;3811;49.006;12.076;2024-03-23T06:56:40;4.00;;;3.60;;
7539;SDS011;3811;49.006;12.076;2024-03-23T06:59:06;6.80;;;4.70;;
7539;SDS011;3811;49.006;12.076;2024-03-23T07:01:34;8.33;;;6.50;;
7539;SDS011;3811;49.006;12.076;2024-03-23T07:04:00;5.77;;;5.17;;
7539;SDS011;3811;49.006;12.076;2024-03-23T07:06:27;6.50;;;4.50;;
7539;SDS011;3811;49.006;12.076;2024-03-23T07:08:54;4.30;;;3.90;;
7539;SDS011;3811;49.006;12.076;2024-03-23T07:11:21;6.60;;;5.80;;
7539;SDS011;3811;49.006;12.076;2024-03-23T07:13:50;5.37;;;4.87;;
7539;SDS011;3811;49.006;12.076;2024-03-23T07:16:19;5.50;;;4.17;;
7539;SDS011;3811;49.006;12.076;2024-03-23T07:18:46;4.93;;;4.30;;
7539;SDS011;3811;49.006;12.076;2024-03-23T07:21:14;4.50;;;4.10;;
7539;SDS011;3811;49.006;12.076;2024-03-23T07:23:41;5.43;;;4.47;;
7539;SDS011;3811;49.006;12.076;2024-03-23T07:26:11;5.43;;;4.77;;
7539;SDS011;3811;49.006;12.076;2024-03-23T07:28:38;5.50;;;4.43;;
7539;SDS011;3811;49.006;12.076;2024-03-23T07:31:10;5.70;;;4.67;;
7539;SDS011;3811;49.006;12.076;2024-03-23T07:33:37;5.23;;;4.60;;
7539;SDS011;3811;49.006;12.076;2024-03-23T07:36:07;5.63;;;4.70;;
7539;SDS011;3811;49.006;12.076;2024-03-23T07:38:34;6.00;;;4.40;;
7539;SDS011;3811;49.006;12.076;2024-03-23T07:41:05;4.57;;;4.03;;
7539;SDS011;3811;49.006;12.076;2024-03-23T07:43:31;4.87;;;4.40;;
7539;SDS011;3811;49.006;12.076;2024-03-23T07:45:58;4.57;;;4.17;;
7539;SDS011;3811;49.006;12.076;2024-03-23T07:48:26;4.17;;;3.77;;
7539;SDS011;3811;49.006;12.076;2024-03-23T07:50:58;6.00;;;4.07;;
7539;SDS011;3811;49.006;12.076;2024-03-23T07:53:24;3.20;;;2.80;;
7539;SDS011;3811;49.006;12.076;2024-03-23T07:55:53;2.43;;;2.23;;
7539;SDS011;3811;49.006;12.076;2024-03-23T07:58:20;1.83;;;1.73;;
7539;SDS011;3811;49.006;12.076;2024-03-23T08:00:47;1.90;;;1.73;;
7539;SDS011;3811;49.006;12.076;2024-03-23T08:03:13;2.00;;;1.90;;
7539;SDS011;3811;49.006;12.076;2024-03-23T08:05:45;3.50;;;2.20;;
7539;SDS011;3811;49.006;12.076;2024-03-23T08:08:11;2.33;;;2.17;;
7539;SDS011;3811;49.006;12.076;2024-03-23T08:10:46;2.23;;;2.03;;
7539;SDS011;3811;49.006;12.076;2024-03-23T08:13:29;2.50;;;1.87;;
7539;SDS011;3811;49.006;12.076;2024-03-23T08:15:56;2.43;;;1.80;;
7539;SDS011;3811;49.006;12.076;2024-03-23T08:18:23;2.07;;;1.93;;
7539;SDS011;3811;49.006;12.076;2024-03-23T08:20:58;1.77;;;1.50;;
7539;SDS011;3811;49.006;12.076;2024-03-23T08:23:25;1.73;;;1.43;;
7539;SDS011;3811;49.006;12.076;2024-03-23T08:25:52;1.73;;;1.63;;
7539;SDS011;3811;49.006;12.076;2024-03-23T08:28:18;1.70;;;1.60;;
7539;SDS011;3811;49.006;12.076;2024-03-23T08:30:46;1.60;;;1.50;;
7539;SDS011;3811;49.006;12.076;2024-03-23T08:33:12;1.43;;;1.40;;
7539;SDS011;3811;49.006;12.076;2024-03-23T08:35:43;1.40;;;1.30;;
7539;SDS011;3811;49.006;12.076;2024-03-23T08:38:19;1.37;;;1.33;;
7539;SDS011;3811;49.006;12.076;2024-03-23T08:40:48;1.00;;;1.00;;
7539;SDS011;3811;49.006;12.076;2024-03-23T08:43:14;1.03;;;1.00;;
7539;SDS011;3811;49.006;12.076;2024-03-23T08:45:45;1.33;;;1.23;;
7539;SDS011;3811;49.006;12.076;2024-03-23T08:48:12;1.13;;;1.13;;
7539;SDS011;3811;49.006;12.076;2024-03-23T08:50:40;1.13;;;1.13;;
7539;SDS011;3811;49.006;12.076;2024-03-23T08:57:09;1.50;;;1.40;;
7539;SDS011;3811;49.006;12.076;2024-03-23T08:59:51;2.17;;;1.60;;
7539;SDS011;3811;49.006;12.076;2024-03-23T09:02:32;1.77;;;1.67;;
7539;SDS011;3811;49.006;12.076;2024-03-23T09:04:59;1.60;;;1.50;;
7539;SDS011;3811;49.006;12.076;2024-03-23T09:07:35;2.53;;;1.60;;
7539;SDS011;3811;49.006;12.076;2024-03-23T09:10:03;1.60;;;1.50;;
7539;SDS011;3811;49.006;12.076;2024-03-23T09:12:31;1.77;;;1.67;;
7539;SDS011;3811;49.006;12.076;2024-03-23T09:14:58;1.30;;;1.20;;
7539;SDS011;3811;49.006;12.076;2024-03-23T09:17:25;1.70;;;1.57;;
7539;SDS011;3811;49.006;12.076;2024-03-23T09:19:52;1.47;;;1.37;;
7539;SDS011;3811;49.006;12.076;2024-03-23T09:22:18;1.77;;;1.67;;
7539;SDS011;3811;49.006;12.076;2024-03-23T09:24:45;1.57;;;1.47;;
7539;SDS011;3811;49.006;12.076;2024-03-23T09:27:11;2.37;;;1.97;;
7539;SDS011;3811;49.006;12.076;2024-03-23T09:29:40;1.93;;;1.83;;
7539;SDS011;3811;49.006;12.076;2024-03-23T09:32:06;1.57;;;1.47;;
7539;SDS011;3811;49.006;12.076;2024-03-23T09:34:34;2.37;;;2.03;;
7539;SDS011;3811;49.006;12.076;2024-03-23T09:37:00;1.20;;;1.10;;
7539;SDS011;3811;49.006;12.076;2024-03-23T09:39:27;1.50;;;1.40;;
7539;SDS011;3811;49.006;12.076;2024-03-23T09:41:56;1.40;;;1.30;;
7539;SDS011;3811;49.006;12.076;2024-03-23T09:44:24;2.73;;;2.20;;
7539;SDS011;3811;49.006;12.076;2024-03-23T09:46:52;1.83;;;1.13;;
7539;SDS011;3811;49.006;12.076;2024-03-23T09:49:20;2.50;;;2.30;;
7539;SDS011;3811;49.006;12.076;2024-03-23T09:51:46;2.43;;;1.87;;
7539;SDS011;3811;49.006;12.076;2024-03-23T09:54:14;4.47;;;3.20;;
7539;SDS011;3811;49.006;12.076;2024-03-23T09:56:40;1.97;;;1.87;;
7539;SDS011;3811;49.006;12.076;2024-03-23T09:59:07;2.00;;;1.90;;
7539;SDS011;3811;49.006;12.076;2024-03-23T10:01:35;1.50;;;1.40;;
7539;SDS011;3811;49.006;12.076;2024-03-23T10:04:04;1.33;;;1.23;;
7539;SDS011;3811;49.006;12.076;2024-03-23T10:06:30;1.60;;;1.50;;
7539;SDS011;3811;49.006;12.076;2024-03-23T10:08:57;1.40;;;1.33;;
7539;SDS011;3811;49.006;12.076;2024-03-23T10:11:24;1.60;;;1.50;;
7539;SDS011;3811;49.006;12.076;2024-03-23T10:13:52;1.40;;;1.20;;
7539;SDS011;3811;49.006;12.076;2024-03-23T10:16:22;1.03;;;0.90;;
7539;SDS011;3811;49.006;12.076;2024-03-23T10:18:52;1.40;;;1.30;;
7539;SDS011;3811;49.006;12.076;2024-03-23T10:21:19;1.17;;;1.10;;
7539;SDS011;3811;49.006;12.076;2024-03-23T10:23:47;1.03;;;0.80;;
7539;SDS011;3811;49.006;12.076;2024-03-23T10:26:16;1.40;;;1.30;;
7539;SDS011;3811;49.006;12.076;2024-03-23T10:28:56;1.40;;;1.30;;
7539;SDS011;3811;49.006;12.076;2024-03-23T10:31:24;1.00;;;1.00;;
7539;SDS011;3811;49.006;12.076;2024-03-23T10:33:52;1.30;;;1.10;;
7539;SDS011;3811;49.006;12.076;2024-03-23T10:36:21;0.77;;;0.77;;
7539;SDS011;3811;49.006;12.076;2024-03-23T10:38:49;0.90;;;0.90;;
7539;SDS011;3811;49.006;12.076;2024-03-23T10:41:16;0.80;;;0.80;;
7539;SDS011;3811;49.006;12.076;2024-03-23T10:43:44;1.00;;;1.00;;
7539;SDS011;3811;49.006;12.076;2024-03-23T10:46:11;1.07;;;1.07;;
7539;SDS011;3811;49.006;12.076;2024-03-23T10:48:38;0.87;;;0.80;;
7539;SDS011;3811;49.006;12.076;2024-03-23T10:51:05;0.60;;;0.60;;
7539;SDS011;3811;49.006;12.076;2024-03-23T10:53:36;0.60;;;0.60;;
7539;SDS011;3811;49.006;12.076;2024-03-23T10:56:02;0.73;;;0.73;;
7539;SDS011;3811;49.006;12.076;2024-03-23T10:58:31;0.87;;;0.87;;
7539;SDS011;3811;49.006;12.076;2024-03-23T11:00:58;0.90;;;0.90;;
7539;SDS011;3811;49.006;12.076;2024-03-23T11:03:32;1.10;;;1.10;;
7539;SDS011;3811;49.006;12.076;2024-03-23T11:05:58;0.80;;;0.80;;
7539;SDS011;3811;49.006;12.076;2024-03-23T11:08:32;1.10;;;1.10;;
7539;SDS011;3811;49.006;12.076;2024-03-23T11:11:14;0.97;;;0.97;;
7539;SDS011;3811;49.006;12.076;2024-03-23T11:13:42;0.97;;;0.97;;
7539;SDS011;3811;49.006;12.076;2024-03-23T11:16:15;0.90;;;0.90;;
7539;SDS011;3811;49.006;12.076;2024-03-23T11:18:43;0.67;;;0.67;;
7539;SDS011;3811;49.006;12.076;2024-03-23T11:21:10;0.60;;;0.60;;
7539;SDS011;3811;49.006;12.076;2024-03-23T11:23:38;0.80;;;0.80;;
7539;SDS011;3811;49.006;12.076;2024-03-23T11:26:07;0.90;;;0.90;;
7539;SDS011;3811;49.006;12.076;2024-03-23T11:28:41;0.90;;;0.90;;
7539;SDS011;3811;49.006;12.076;2024-03-23T11:31:09;0.90;;;0.90;;
7539;SDS011;3811;49.006;12.076;2024-03-23T11:33:36;0.70;;;0.70;;
7539;SDS011;3811;49.006;12.076;2024-03-23T11:36:03;0.60;;;0.60;;
7539;SDS011;3811;49.006;12.076;2024-03-23T11:38:30;0.63;;;0.63;;
7539;SDS011;3811;49.006;12.076;2024-03-23T11:41:02;0.80;;;0.80;;
7539;SDS011;3811;49.006;12.076;2024-03-23T11:43:30;0.70;;;0.70;;
7539;SDS011;3811;49.006;12.076;2024-03-23T11:45:58;0.60;;;0.60;;
7539;SDS011;3811;49.006;12.076;2024-03-23T11:48:28;0.80;;;0.80;;
7539;SDS011;3811;49.006;12.076;2024-03-23T11:50:55;1.33;;;1.23;;
7539;SDS011;3811;49.006;12.076;2024-03-23T11:53:22;0.93;;;0.93;;
7539;SDS011;3811;49.006;12.076;2024-03-23T11:55:50;0.80;;;0.80;;
7539;SDS011;3811;49.006;12.076;2024-03-23T11:58:18;0.80;;;0.80;;
7539;SDS011;3811;49.006;12.076;2024-03-23T12:00:51;0.80;;;0.80;;
7539;SDS011;3811;49.006;12.076;2024-03-23T12:03:20;0.90;;;0.90;;
7539;SDS011;3811;49.006;12.076;2024-03-23T12:05:48;1.10;;;0.97;;
7539;SDS011;3811;49.006;12.076;2024-03-23T12:08:18;0.90;;;0.90;;
7539;SDS011;3811;49.006;12.076;2024-03-23T12:10:47;0.87;;;0.80;;
7539;SDS011;3811;49.006;12.076;2024-03-23T12:13:18;0.57;;;0.57;;
7539;SDS011;3811;49.006;12.076;2024-03-23T12:15:44;0.70;;;0.70;;
7539;SDS011;3811;49.006;12.076;2024-03-23T12:18:12;0.83;;;0.83;;
7539;SDS011;3811;49.006;12.076;2024-03-23T12:20:40;0.90;;;0.90;;
7539;SDS011;3811;49.006;12.076;2024-03-23T12:23:08;0.60;;;0.60;;
7539;SDS011;3811;49.006;12.076;2024-03-23T12:25:35;1.20;;;0.87;;
7539;SDS011;3811;49.006;12.076;2024-03-23T12:28:03;0.67;;;0.67;;
7539;SDS011;3811;49.006;12.076;2024-03-23T12:30:31;1.00;;;1.00;;
7539;SDS011;3811;49.006;12.076;2024-03-23T12:32:59;0.70;;;0.70;;
7539;SDS011;3811;49.006;12.076;2024-03-23T12:35:25;0.90;;;0.90;;
7539;SDS011;3811;49.006;12.076;2024-03-23T12:37:54;0.97;;;0.97;;
7539;SDS011;3811;49.006;12.076;2024-03-23T12:40:20;1.60;;;0.80;;
7539;SDS011;3811;49.006;12.076;2024-03-23T12:42:47;0.90;;;0.90;;
7539;SDS011;3811;49.006;12.076;2024-03-23T12:45:13;0.80;;;0.80;;
7539;SDS011;3811;49.006;12.076;2024-03-23T12:47:40;1.00;;;1.00;;
7539;SDS011;3811;49.006;12.076;2024-03-23T12:50:07;1.17;;;1.10;;
7539;SDS011;3811;49.006;12.076;2024-03-23T12:52:40;0.80;;;0.80;;
7539;SDS011;3811;49.006;12.076;2024-03-23T12:55:51;1.00;;;1.00;;
7539;SDS011;3811;49.006;12.076;2024-03-23T12:58:18;0.97;;;0.97;;
7539;SDS011;3811;49.006;12.076;2024-03-23T13:00:44;1.40;;;1.30;;
7539;SDS011;3811;49.006;12.076;2024-03-23T13:03:13;1.00;;;1.00;;
7539;SDS011;3811;49.006;12.076;2024-03-23T13:05:40;2.03;;;0.77;;
7539;SDS011;3811;49.006;12.076;2024-03-23T13:08:07;1.07;;;1.07;;
7539;SDS011;3811;49.006;12.076;2024-03-23T13:10:34;1.00;;;1.00;;
7539;SDS011;3811;49.006;12.076;2024-03-23T13:13:02;0.93;;;0.93;;
7539;SDS011;3811;49.006;12.076;2024-03-23T13:15:29;0.90;;;0.90;;
7539;SDS011;3811;49.006;12.076;2024-03-23T13:17:56;1.50;;;1.40;;
7539;SDS011;3811;49.006;12.076;2024-03-23T13:20:24;1.00;;;1.00;;
7539;SDS011;3811;49.006;12.076;2024-03-23T13:22:51;0.80;;;0.80;;
7539;SDS011;3811;49.006;12.076;2024-03-23T13:25:18;1.43;;;0.90;;
7539;SDS011;3811;49.006;12.076;2024-03-23T13:27:45;1.53;;;1.43;;
7539;SDS011;3811;49.006;12.076;2024-03-23T13:30:13;1.60;;;1.40;;
7539;SDS011;3811;49.006;12.076;2024-03-23T13:32:41;0.70;;;0.70;;
7539;SDS011;3811;49.006;12.076;2024-03-23T13:35:07;1.10;;;1.10;;
7539;SDS011;3811;49.006;12.076;2024-03-23T13:37:34;0.97;;;0.97;;
7539;SDS011;3811;49.006;12.076;2024-03-23T13:40:00;0.90;;;0.90;;
7539;SDS011;3811;49.006;12.076;2024-03-23T13:42:28;0.83;;;0.83;;
7539;SDS011;3811;49.006;12.076;2024-03-23T13:44:54;1.43;;;1.33;;
7539;SDS011;3811;49.006;12.076;2024-03-23T13:47:23;0.90;;;0.90;;
7539;SDS011;3811;49.006;12.076;2024-03-23T13:49:49;1.23;;;1.23;;
7539;SDS011;3811;49.006;12.076;2024-03-23T13:52:16;1.30;;;1.20;;
7539;SDS011;3811;49.006;12.076;2024-03-23T13:54:47;1.37;;;1.27;;
7539;SDS011;3811;49.006;12.076;2024-03-23T13:57:15;1.27;;;1.17;;
7539;SDS011;3811;49.006;12.076;2024-03-23T13:59:42;1.43;;;1.30;;
7539;SDS011;3811;49.006;12.076;2024-03-23T14:02:09;1.30;;;1.30;;
7539;SDS011;3811;49.006;12.076;2024-03-23T14:04:38;1.27;;;1.10;;
7539;SDS011;3811;49.006;12.076;2024-03-23T14:07:05;3.43;;;1.20;;
7539;SDS011;3811;49.006;12.076;2024-03-23T14:09:32;1.30;;;1.23;;
7539;SDS011;3811;49.006;12.076;2024-03-23T14:12:00;1.30;;;1.30;;
7539;SDS011;3811;49.006;12.076;2024-03-23T14:14:26;1.73;;;1.23;;
7539;SDS011;3811;49.006;12.076;2024-03-23T14:16:53;1.40;;;1.30;;
7539;SDS011;3811;49.006;12.076;2024-03-23T14:19:19;1.20;;;1.03;;
7539;SDS011;3811;49.006;12.076;2024-03-23T14:21:48;1.50;;;1.40;;
7539;SDS011;3811;49.006;12.076;2024-03-23T14:24:14;0.90;;;0.90;;
7539;SDS011;3811;49.006;12.076;2024-03-23T14:26:42;1.00;;;1.00;;
7539;SDS011;3811;49.006;12.076;2024-03-23T14:29:08;2.10;;;1.60;;
7539;SDS011;3811;49.006;12.076;2024-03-23T14:31:36;2.53;;;1.53;;
7539;SDS011;3811;49.006;12.076;2024-03-23T14:34:03;1.50;;;1.40;;
7539;SDS011;3811;49.006;12.076;2024-03-23T14:36:29;1.20;;;1.20;;
7539;SDS011;3811;49.006;12.076;2024-03-23T14:38:58;1.27;;;1.10;;
7539;SDS011;3811;49.006;12.076;2024-03-23T14:41:24;1.10;;;1.00;;
7539;SDS011;3811;49.006;12.076;2024-03-23T14:43:51;1.20;;;1.10;;
7539;SDS011;3811;49.006;12.076;2024-03-23T14:46:19;1.30;;;1.20;;
7539;SDS011;3811;49.006;12.076;2024-03-23T14:48:47;1.83;;;1.10;;
7539;SDS011;3811;49.006;12.076;2024-03-23T14:51:14;1.00;;;1.00;;
7539;SDS011;3811;49.006;12.076;2024-03-23T14:53:42;1.10;;;1.10;;
7539;SDS011;3811;49.006;12.076;2024-03-23T14:56:12;0.80;;;0.80;;
7539;SDS011;3811;49.006;12.076;2024-03-23T14:58:41;1.40;;;1.40;;
7539;SDS011;3811;49.006;12.076;2024-03-23T15:01:07;1.33;;;1.23;;
7539;SDS011;3811;49.006;12.076;2024-03-23T15:03:35;1.40;;;1.00;;
7539;SDS011;3811;49.006;12.076;2024-03-23T15:06:01;1.60;;;1.50;;
7539;SDS011;3811;49.006;12.076;2024-03-23T15:08:28;0.97;;;0.93;;
7539;SDS011;3811;49.006;12.076;2024-03-23T15:18:21;1.10;;;1.10;;
7539;SDS011;3811;49.006;12.076;2024-03-23T15:20:52;0.90;;;0.90;;
7539;SDS011;3811;49.006;12.076;2024-03-23T15:23:18;1.40;;;1.30;;
7539;SDS011;3811;49.006;12.076;2024-03-23T15:25:45;1.83;;;1.60;;
7539;SDS011;3811;49.006;12.076;2024-03-23T15:28:11;1.43;;;1.03;;
7539;SDS011;3811;49.006;12.076;2024-03-23T15:30:39;2.53;;;1.27;;
7539;SDS011;3811;49.006;12.076;2024-03-23T15:33:05;2.73;;;1.47;;
7539;SDS011;3811;49.006;12.076;2024-03-23T15:35:33;1.00;;;1.00;;
7539;SDS011;3811;49.006;12.076;2024-03-23T15:38:00;1.20;;;1.20;;
7539;SDS011;3811;49.006;12.076;2024-03-23T15:40:27;0.93;;;0.93;;
7539;SDS011;3811;49.006;12.076;2024-03-23T15:42:53;1.13;;;1.10;;
7539;SDS011;3811;49.006;12.076;2024-03-23T15:45:20;1.23;;;1.23;;
7539;SDS011;3811;49.006;12.076;2024-03-23T15:47:47;1.20;;;1.20;;
7539;SDS011;3811;49.006;12.076;2024-03-23T15:50:14;1.50;;;1.40;;
7539;SDS011;3811;49.006;12.076;2024-03-23T15:52:42;0.70;;;0.70;;
7539;SDS011;3811;49.006;12.076;2024-03-23T15:55:09;2.63;;;1.17;;
7539;SDS011;3811;49.006;12.076;2024-03-23T15:57:35;2.60;;;1.43;;
7539;SDS011;3811;49.006;12.076;2024-03-23T16:00:03;1.33;;;1.23;;
7539;SDS011;3811;49.006;12.076;2024-03-23T16:02:37;1.43;;;1.33;;
7539;SDS011;3811;49.006;12.076;2024-03-23T16:05:04;0.93;;;0.93;;
7539;SDS011;3811;49.006;12.076;2024-03-23T16:07:33;1.50;;;1.40;;